createdAt,value
2018-02-23T00:00:50.090Z,78.79
2018-02-23T00:02:51.905Z,79.36
2018-02-23T00:04:54.161Z,79.74
2018-02-23T00:06:56.027Z,79.93
2018-02-23T00:08:57.903Z,80.21
2018-02-23T00:10:59.694Z,79.93
2018-02-23T00:13:01.526Z,80.02
2018-02-23T00:15:03.416Z,80.02
2018-02-23T00:17:05.222Z,80.02
2018-02-23T00:19:07.490Z,80.40
2018-02-23T00:21:09.240Z,80.40
2018-02-23T00:23:11.538Z,80.58
2018-02-23T00:25:13.339Z,80.30
2018-02-23T00:27:15.125Z,79.93
2018-02-23T00:29:17.433Z,80.21
2018-02-23T00:31:19.093Z,79.74
2018-02-23T00:33:21.184Z,80.11
2018-02-23T00:35:23.292Z,80.30
2018-02-23T00:37:25.103Z,80.30
2018-02-23T00:39:26.908Z,80.49
2018-02-23T00:41:28.728Z,80.68
2018-02-23T00:43:30.984Z,80.58
2018-02-23T00:45:32.831Z,80.40
2018-02-23T00:47:34.744Z,80.40
2018-02-23T00:49:36.484Z,80.58
2018-02-23T00:51:38.601Z,80.21
2018-02-23T00:53:40.293Z,80.40
2018-02-23T00:55:42.109Z,80.21
2018-02-23T00:57:44.202Z,80.02
2018-02-23T00:59:46.069Z,79.74
2018-02-23T01:01:47.855Z,79.83
2018-02-23T01:03:49.645Z,79.93
2018-02-23T01:05:51.445Z,80.21
2018-02-23T01:07:53.610Z,79.83
2018-02-23T01:09:55.785Z,79.83
2018-02-23T01:11:58.085Z,79.83
2018-02-23T01:14:00.232Z,79.74
2018-02-23T01:16:01.979Z,80.40
2018-02-23T01:18:04.224Z,80.77
2018-02-23T01:20:05.975Z,80.49
2018-02-23T01:22:07.791Z,80.40
2018-02-23T01:24:10.526Z,80.40
2018-02-23T01:26:12.313Z,80.58
2018-02-23T01:28:14.158Z,80.49
2018-02-23T01:30:15.915Z,80.40
2018-02-23T01:32:18.071Z,80.30
2018-02-23T01:34:19.960Z,80.68
2018-02-23T01:36:21.758Z,80.77
2018-02-23T01:38:23.668Z,80.40
2018-02-23T01:40:25.484Z,80.21
2018-02-23T01:42:27.227Z,80.21
2018-02-23T01:44:28.996Z,80.40
2018-02-23T01:46:31.150Z,80.77
2018-02-23T01:48:33.000Z,80.77
2018-02-23T01:50:35.118Z,80.87
2018-02-23T01:52:36.911Z,80.68
2018-02-23T01:54:39.049Z,81.25
2018-02-23T01:56:40.949Z,81.15
2018-02-23T01:58:42.836Z,80.77
2018-02-23T02:00:45.090Z,81.25
2018-02-23T02:02:46.860Z,81.44
2018-02-23T02:05:29.887Z,81.72
2018-02-23T02:07:32.614Z,81.82
2018-02-23T02:09:34.251Z,81.92
2018-02-23T02:11:35.963Z,82.20
2018-02-23T02:13:37.737Z,82.20
2018-02-23T02:15:39.459Z,82.39
2018-02-23T02:17:41.394Z,82.48
2018-02-23T02:19:43.190Z,82.29
2018-02-23T02:21:45.044Z,82.20
2018-02-23T02:23:46.878Z,81.92
2018-02-23T02:25:48.665Z,82.20
2018-02-23T02:27:50.922Z,82.57
2018-02-23T02:29:52.649Z,82.48
2018-02-23T02:31:54.444Z,82.29
2018-02-23T02:33:56.299Z,82.48
2018-02-23T02:35:58.122Z,82.57
2018-02-23T02:37:59.779Z,82.86
2018-02-23T02:40:01.864Z,82.76
2018-02-23T02:42:03.931Z,83.05
2018-02-23T02:44:05.680Z,82.67
2018-02-23T02:46:07.521Z,82.67
2018-02-23T02:48:09.300Z,82.76
2018-02-23T02:50:11.156Z,82.86
2018-02-23T02:52:12.873Z,82.67
2018-02-23T02:54:14.640Z,82.86
2018-02-23T02:56:16.516Z,82.86
2018-02-23T02:58:18.401Z,83.33
2018-02-23T03:00:20.231Z,83.43
2018-02-23T03:02:22.120Z,83.52
2018-02-23T03:04:24.012Z,83.52
2018-02-23T03:06:25.825Z,82.67
2018-02-23T03:08:27.659Z,82.95
2018-02-23T03:10:29.973Z,82.57
2018-02-23T03:12:31.772Z,82.29
2018-02-23T03:14:33.528Z,82.57
2018-02-23T03:16:35.359Z,82.20
2018-02-23T03:18:37.298Z,82.20
2018-02-23T03:20:39.176Z,82.39
2018-02-23T03:22:40.942Z,82.29
2018-02-23T03:25:24.358Z,82.57
2018-02-23T03:27:27.598Z,82.76
2018-02-23T03:29:29.758Z,82.86
2018-02-23T03:31:32.105Z,82.67
2018-02-23T03:33:34.028Z,82.57
2018-02-23T03:35:36.255Z,82.76
2018-02-23T03:37:38.024Z,82.48
2018-02-23T03:39:39.843Z,82.67
2018-02-23T03:41:41.693Z,83.14
2018-02-23T03:43:43.828Z,83.05
2018-02-23T03:45:45.453Z,82.95
2018-02-23T03:47:47.594Z,83.71
2018-02-23T03:49:50.646Z,83.43
2018-02-23T03:51:52.447Z,83.71
2018-02-23T03:53:54.544Z,83.24
2018-02-23T03:55:56.614Z,83.24
2018-02-23T03:57:58.526Z,83.05
2018-02-23T04:00:01.441Z,83.24
2018-02-23T04:02:03.218Z,83.24
2018-02-23T04:04:51.343Z,83.52
2018-02-23T04:06:52.846Z,83.62
2018-02-23T04:08:54.908Z,83.52
2018-02-23T04:10:56.499Z,83.05
2018-02-23T04:12:58.716Z,82.86
2018-02-23T04:15:00.476Z,82.67
2018-02-23T04:17:02.313Z,82.86
2018-02-23T04:19:04.050Z,83.05
2018-02-23T04:21:05.882Z,82.86
2018-02-23T04:23:07.676Z,82.86
2018-02-23T04:25:09.400Z,82.76
2018-02-23T04:27:11.324Z,82.76
2018-02-23T04:29:13.168Z,82.95
2018-02-23T04:31:15.307Z,82.86
2018-02-23T04:33:17.145Z,83.05
2018-02-23T04:35:18.990Z,82.67
2018-02-23T04:37:20.758Z,82.67
2018-02-23T04:39:22.648Z,82.76
2018-02-23T04:41:24.445Z,82.67
2018-02-23T04:43:26.554Z,82.39
2018-02-23T04:45:28.431Z,82.67
2018-02-23T04:47:30.284Z,82.48
2018-02-23T04:49:32.130Z,82.39
2018-02-23T04:51:34.025Z,82.57
2018-02-23T04:53:35.797Z,82.48
2018-02-23T04:55:37.530Z,82.48
2018-02-23T04:57:39.652Z,82.44
2018-02-23T04:59:41.708Z,82.06
2018-02-23T05:01:43.741Z,82.25
2018-02-23T05:03:45.525Z,82.48
2018-02-23T05:05:47.288Z,82.15
2018-02-23T05:07:49.087Z,82.25
2018-02-23T05:09:50.953Z,82.15
2018-02-23T05:11:52.834Z,81.59
2018-02-23T05:13:54.662Z,82.34
2018-02-23T05:15:57.086Z,82.25
2018-02-23T05:17:58.869Z,82.15
2018-02-23T05:20:01.066Z,82.44
2018-02-23T05:22:02.814Z,82.25
2018-02-23T05:24:05.014Z,82.25
2018-02-23T05:26:06.816Z,82.82
2018-02-23T05:28:08.662Z,82.63
2018-02-23T05:30:10.407Z,82.53
2018-02-23T05:32:12.171Z,82.82
2018-02-23T05:34:14.385Z,82.44
2018-02-23T05:36:16.225Z,82.25
2018-02-23T05:38:18.016Z,82.34
2018-02-23T05:40:19.783Z,82.25
2018-02-23T05:42:21.563Z,82.91
2018-02-23T05:44:23.367Z,82.72
2018-02-23T05:46:25.192Z,82.63
2018-02-23T05:48:27.027Z,82.44
2018-02-23T05:50:28.821Z,82.72
2018-02-23T05:52:31.150Z,82.72
2018-02-23T05:54:33.256Z,83.20
2018-02-23T05:56:35.473Z,82.72
2018-02-23T05:58:37.368Z,83.20
2018-02-23T06:00:39.274Z,82.91
2018-02-23T06:03:22.702Z,82.63
2018-02-23T06:05:24.217Z,82.72
2018-02-23T06:07:26.253Z,82.63
2018-02-23T06:09:29.004Z,82.63
2018-02-23T06:11:30.581Z,82.91
2018-02-23T06:13:32.295Z,82.44
2018-02-23T06:15:34.113Z,82.15
2018-02-23T06:17:35.983Z,82.63
2018-02-23T06:19:37.765Z,82.82
2018-02-23T06:21:39.866Z,83.39
2018-02-23T06:23:41.677Z,82.91
2018-02-23T06:25:43.436Z,83.01
2018-02-23T06:27:45.289Z,82.82
2018-02-23T06:29:47.059Z,82.82
2018-02-23T06:31:48.913Z,82.15
2018-02-23T06:33:50.916Z,82.34
2018-02-23T06:35:52.675Z,82.63
2018-02-23T06:37:55.091Z,82.06
2018-02-23T06:39:56.844Z,81.59
2018-02-23T06:41:58.778Z,82.34
2018-02-23T06:44:00.502Z,81.87
2018-02-23T06:46:02.376Z,81.77
2018-02-23T06:48:04.127Z,82.25
2018-02-23T06:50:06.182Z,82.34
2018-02-23T06:52:07.917Z,81.77
2018-02-23T06:54:09.670Z,81.59
2018-02-23T06:56:11.547Z,82.06
2018-02-23T06:58:13.324Z,82.15
2018-02-23T07:00:15.372Z,81.87
2018-02-23T07:02:17.273Z,82.34
2018-02-23T07:05:00.218Z,82.34
2018-02-23T07:07:03.835Z,81.77
2018-02-23T07:09:05.744Z,81.59
2018-02-23T07:11:07.884Z,81.77
2018-02-23T07:13:09.924Z,81.77
2018-02-23T07:15:11.729Z,81.21
2018-02-23T07:17:13.438Z,81.12
2018-02-23T07:19:15.553Z,81.12
2018-02-23T07:21:17.300Z,80.55
2018-02-23T07:24:00.649Z,80.83
2018-02-23T07:26:02.322Z,80.74
2018-02-23T07:28:03.890Z,80.64
2018-02-23T07:30:05.622Z,80.26
2018-02-23T07:32:07.208Z,80.55
2018-02-23T07:34:08.840Z,80.17
2018-02-23T07:36:11.776Z,79.60
2018-02-23T07:38:13.342Z,79.98
2018-02-23T07:40:15.386Z,79.88
2018-02-23T07:42:17.325Z,79.60
2018-02-23T07:45:00.672Z,79.88
2018-02-23T07:47:06.057Z,79.60
2018-02-23T07:49:07.580Z,79.69
2018-02-23T07:51:09.554Z,79.22
2018-02-23T07:53:11.389Z,79.03
2018-02-23T07:55:13.148Z,78.27
2018-02-23T07:57:14.873Z,77.99
2018-02-23T07:59:16.709Z,77.99
2018-02-23T08:01:18.586Z,78.27
2018-02-23T08:03:20.410Z,78.18
2018-02-23T08:05:22.193Z,78.37
2018-02-23T08:07:23.924Z,77.14
2018-02-23T08:09:25.920Z,75.95
2018-02-23T08:11:27.998Z,76.23
2018-02-23T08:13:30.012Z,74.24
2018-02-23T08:15:31.729Z,73.33
2018-02-23T08:17:33.613Z,71.44
2018-02-23T08:19:35.477Z,68.59
2018-02-23T08:21:37.424Z,68.59
2018-02-23T08:23:39.253Z,69.54
2018-02-23T08:25:41.209Z,69.07
2018-02-23T08:27:43.013Z,67.83
2018-02-23T08:29:44.858Z,67.58
2018-02-23T08:31:46.777Z,62.66
2018-02-23T08:33:48.522Z,55.52
2018-02-23T08:35:50.271Z,49.71
2018-02-23T08:37:52.250Z,45.80
2018-02-23T08:39:53.756Z,45.04
2018-02-23T08:41:55.426Z,43.87
2018-02-23T08:44:37.897Z,46.97
2018-02-23T08:46:39.313Z,49.87
2018-02-23T08:48:40.735Z,51.67
2018-02-23T08:50:42.155Z,52.33
2018-02-23T08:52:43.571Z,53.73
2018-02-23T08:54:46.286Z,54.71
2018-02-23T08:56:47.738Z,55.35
2018-02-23T08:58:50.178Z,56.46
2018-02-23T09:00:52.143Z,58.64
2018-02-23T09:03:35.985Z,58.89
2018-02-23T09:05:38.759Z,60.31
2018-02-23T09:07:40.129Z,60.95
2018-02-23T09:09:42.530Z,61.05
2018-02-23T09:11:44.291Z,62.37
2018-02-23T09:13:45.847Z,62.37
2018-02-23T09:15:47.291Z,62.05
2018-02-23T09:17:48.937Z,63.10
2018-02-23T09:19:51.707Z,62.82
2018-02-23T09:21:53.696Z,62.62
2018-02-23T09:24:39.351Z,62.24
2018-02-23T09:26:40.783Z,62.82
2018-02-23T09:28:42.941Z,62.62
2018-02-23T09:30:44.372Z,63.76
2018-02-23T09:32:46.012Z,62.05
2018-02-23T09:34:48.071Z,62.02
2018-02-23T09:36:51.220Z,62.50
2018-02-23T09:38:52.943Z,62.15
2018-02-23T09:40:54.444Z,62.15
2018-02-23T09:42:55.976Z,60.92
2018-02-23T09:44:58.090Z,61.11
2018-02-23T09:46:59.632Z,61.21
2018-02-23T09:49:01.917Z,61.49
2018-02-23T09:51:03.343Z,59.12
2018-02-23T09:53:04.847Z,60.92
2018-02-23T09:55:06.350Z,58.86
2018-02-23T09:57:08.218Z,57.82
2018-02-23T09:59:09.761Z,57.64
2018-02-23T10:01:52.563Z,57.92
2018-02-23T10:03:53.944Z,57.25
2018-02-23T10:05:55.351Z,56.40
2018-02-23T10:08:02.691Z,55.93
2018-02-23T10:10:04.468Z,56.30
2018-02-23T10:12:05.979Z,55.64
2018-02-23T10:14:07.776Z,55.55
2018-02-23T10:16:09.369Z,54.88
2018-02-23T10:18:10.972Z,55.55
2018-02-23T10:20:53.229Z,55.55
2018-02-23T10:22:54.664Z,57.25
2018-02-23T10:24:57.707Z,55.17
2018-02-23T10:26:59.077Z,53.94
2018-02-23T10:29:00.496Z,54.22
2018-02-23T10:31:01.904Z,53.37
2018-02-23T10:33:03.319Z,54.50
2018-02-23T10:35:04.732Z,54.22
2018-02-23T10:37:07.859Z,54.22
2018-02-23T10:39:09.330Z,54.38
2018-02-23T10:41:12.244Z,54.95
2018-02-23T10:43:13.770Z,54.86
2018-02-23T10:45:15.346Z,55.14
2018-02-23T10:47:16.755Z,55.36
2018-02-23T10:49:18.146Z,54.88
2018-02-23T10:51:19.573Z,54.22
2018-02-23T10:53:21.031Z,53.56
2018-02-23T10:55:22.544Z,54.13
2018-02-23T10:57:24.063Z,54.53
2018-02-23T11:00:08.018Z,53.77
2018-02-23T11:02:11.124Z,52.64
2018-02-23T11:04:12.571Z,52.16
2018-02-23T11:06:15.075Z,52.45
2018-02-23T11:08:16.549Z,51.78
2018-02-23T11:10:18.633Z,51.03
2018-02-23T11:12:20.132Z,50.38
2018-02-23T11:14:22.840Z,49.98
2018-02-23T11:16:24.381Z,49.98
2018-02-23T11:18:25.915Z,50.17
2018-02-23T11:21:07.809Z,51.52
2018-02-23T11:23:11.102Z,51.05
2018-02-23T11:25:12.447Z,49.24
2018-02-23T11:27:13.859Z,48.49
2018-02-23T11:29:15.276Z,48.96
2018-02-23T11:31:16.702Z,48.58
2018-02-23T11:33:19.713Z,47.92
2018-02-23T11:35:22.292Z,48.30
2018-02-23T11:37:23.837Z,48.86
2018-02-23T11:40:06.756Z,49.15
2018-02-23T11:42:08.207Z,48.58
2018-02-23T11:44:09.623Z,48.51
2018-02-23T11:46:11.047Z,48.22
2018-02-23T11:48:14.211Z,48.13
2018-02-23T11:50:15.651Z,47.66
2018-02-23T11:52:17.036Z,47.75
2018-02-23T11:54:18.448Z,48.32
2018-02-23T11:56:20.957Z,48.32
2018-02-23T11:58:22.370Z,47.85
2018-02-23T12:01:04.602Z,48.89
2018-02-23T12:03:06.019Z,48.35
2018-02-23T12:05:08.184Z,47.68
2018-02-23T12:07:09.599Z,47.49
2018-02-23T12:09:11.020Z,46.25
2018-02-23T12:11:13.243Z,47.02
2018-02-23T12:13:14.645Z,47.18
2018-02-23T12:15:16.079Z,47.56
2018-02-23T12:17:18.343Z,47.85
2018-02-23T12:19:19.982Z,48.32
2018-02-23T12:21:21.531Z,48.13
2018-02-23T12:23:23.652Z,47.47
2018-02-23T12:25:25.197Z,48.41
2018-02-23T12:27:26.717Z,48.03
2018-02-23T12:29:29.102Z,47.94
2018-02-23T12:31:30.639Z,47.94
2018-02-23T12:33:32.691Z,47.66
2018-02-23T12:35:34.197Z,46.90
2018-02-23T12:37:35.670Z,47.28
2018-02-23T12:39:37.212Z,46.70
2018-02-23T12:41:39.206Z,47.09
2018-02-23T12:43:40.717Z,46.80
2018-02-23T12:45:42.273Z,46.99
2018-02-23T12:47:43.950Z,46.14
2018-02-23T12:49:45.528Z,47.28
2018-02-23T12:51:47.061Z,47.37
2018-02-23T12:53:48.564Z,47.18
2018-02-23T12:55:50.029Z,46.61
2018-02-23T12:57:52.162Z,47.09
2018-02-23T12:59:53.647Z,48.22
2018-02-23T13:01:55.852Z,48.06
2018-02-23T13:03:58.147Z,48.51
2018-02-23T13:06:00.259Z,48.35
2018-02-23T13:08:01.773Z,47.47
2018-02-23T13:10:03.264Z,46.42
2018-02-23T13:12:04.743Z,45.57
2018-02-23T13:14:06.196Z,46.99
2018-02-23T13:16:07.662Z,46.51
2018-02-23T13:18:50.254Z,46.90
2018-02-23T13:20:51.666Z,46.61
2018-02-23T13:22:53.545Z,45.76
2018-02-23T13:24:55.238Z,44.83
2018-02-23T13:26:56.710Z,45.00
2018-02-23T13:28:58.263Z,44.90
2018-02-23T13:30:59.677Z,45.38
2018-02-23T13:33:01.175Z,46.04
2018-02-23T13:35:02.607Z,46.80
2018-02-23T13:37:04.019Z,46.61
2018-02-23T13:39:05.597Z,46.51
2018-02-23T13:41:07.831Z,46.90
2018-02-23T13:43:09.390Z,46.06
2018-02-23T13:45:11.569Z,45.00
2018-02-23T13:47:13.085Z,45.76
2018-02-23T13:49:14.613Z,46.04
2018-02-23T13:51:16.032Z,45.19
2018-02-23T13:53:17.545Z,45.95
2018-02-23T13:55:19.662Z,46.14
2018-02-23T13:57:21.509Z,46.23
2018-02-23T14:00:03.869Z,45.38
2018-02-23T14:02:05.287Z,44.90
2018-02-23T14:04:06.698Z,44.71
2018-02-23T14:06:08.113Z,45.28
2018-02-23T14:08:09.538Z,45.57
2018-02-23T14:10:10.936Z,46.51
2018-02-23T14:12:12.555Z,45.57
2018-02-23T14:14:13.972Z,45.28
2018-02-23T14:16:15.378Z,46.59
2018-02-23T14:18:16.854Z,46.78
2018-02-23T14:20:18.262Z,47.73
2018-02-23T14:22:19.695Z,47.75
2018-02-23T14:24:21.277Z,47.56
2018-02-23T14:26:22.697Z,47.09
2018-02-23T14:28:24.107Z,46.51
2018-02-23T14:30:25.548Z,46.69
2018-02-23T14:32:27.038Z,49.82
2018-02-23T14:34:28.602Z,47.16
2018-02-23T14:36:30.058Z,46.21
2018-02-23T14:38:31.549Z,46.21
2018-02-23T14:40:33.855Z,46.30
2018-02-23T14:42:36.430Z,45.83
2018-02-23T14:44:38.811Z,47.06
2018-02-23T14:46:40.715Z,46.11
2018-02-23T14:48:42.703Z,45.73
2018-02-23T14:50:44.204Z,45.92
2018-02-23T14:52:46.473Z,44.69
2018-02-23T14:54:47.956Z,44.60
2018-02-23T14:56:49.468Z,45.83
2018-02-23T14:59:33.009Z,45.83
2018-02-23T15:01:34.423Z,45.92
2018-02-23T15:03:36.209Z,46.11
2018-02-23T15:05:37.616Z,46.69
2018-02-23T15:07:39.128Z,46.49
2018-02-23T15:09:40.580Z,47.06
2018-02-23T15:11:42.036Z,47.53
2018-02-23T15:13:43.578Z,47.73
2018-02-23T15:15:45.110Z,48.39
2018-02-23T15:18:27.154Z,47.63
2018-02-23T15:20:28.739Z,47.34
2018-02-23T15:22:30.516Z,47.53
2018-02-23T15:24:33.722Z,47.80
2018-02-23T15:26:35.962Z,47.61
2018-02-23T15:28:38.141Z,47.99
2018-02-23T15:30:39.676Z,48.36
2018-02-23T15:32:41.221Z,48.27
2018-02-23T15:34:42.660Z,47.80
2018-02-23T15:36:44.973Z,47.71
2018-02-23T15:39:31.060Z,47.80
2018-02-23T15:41:32.617Z,47.52
2018-02-23T15:43:34.895Z,48.18
2018-02-23T15:45:36.272Z,48.08
2018-02-23T15:47:38.551Z,48.56
2018-02-23T15:49:40.452Z,48.56
2018-02-23T15:51:42.422Z,47.52
2018-02-23T15:53:43.927Z,48.27
2018-02-23T15:55:45.486Z,48.27
2018-02-23T15:58:27.185Z,48.65
2018-02-23T16:00:28.965Z,48.36
2018-02-23T16:02:31.840Z,48.36
2018-02-23T16:04:33.452Z,48.84
2018-02-23T16:06:34.883Z,49.13
2018-02-23T16:08:36.376Z,49.03
2018-02-23T16:10:37.932Z,48.94
2018-02-23T16:12:39.441Z,48.94
2018-02-23T16:14:40.971Z,49.51
2018-02-23T16:16:43.228Z,49.88
2018-02-23T16:18:44.853Z,49.60
2018-02-23T16:20:46.379Z,49.41
2018-02-23T16:22:48.515Z,49.86
2018-02-23T16:24:50.006Z,50.55
2018-02-23T16:26:51.584Z,51.28
2018-02-23T16:28:53.121Z,50.90
2018-02-23T16:30:54.622Z,51.18
2018-02-23T16:32:56.203Z,51.76
2018-02-23T16:34:58.372Z,51.28
2018-02-23T16:37:00.419Z,50.62
2018-02-23T16:39:02.407Z,50.71
2018-02-23T16:41:03.863Z,50.52
2018-02-23T16:43:05.279Z,50.71
2018-02-23T16:45:07.476Z,50.81
2018-02-23T16:47:08.981Z,51.18
2018-02-23T16:49:10.510Z,51.37
2018-02-23T16:51:12.029Z,51.85
2018-02-23T16:53:13.528Z,51.95
2018-02-23T16:55:15.639Z,52.33
2018-02-23T16:58:01.308Z,52.61
2018-02-23T17:00:03.525Z,52.33
2018-02-23T17:02:05.573Z,52.42
2018-02-23T17:04:07.007Z,52.98
2018-02-23T17:06:09.138Z,53.27
2018-02-23T17:08:10.714Z,53.56
2018-02-23T17:10:12.953Z,53.53
2018-02-23T17:12:14.506Z,53.72
2018-02-23T17:14:16.048Z,53.91
2018-02-23T17:16:17.496Z,53.72
2018-02-23T17:18:19.030Z,53.81
2018-02-23T17:20:20.526Z,53.91
2018-02-23T17:22:22.791Z,54.10
2018-02-23T17:24:24.242Z,54.10
2018-02-23T17:26:25.768Z,55.14
2018-02-23T17:28:27.280Z,54.86
2018-02-23T17:30:29.036Z,54.57
2018-02-23T17:32:31.143Z,54.86
2018-02-23T17:34:33.306Z,55.05
2018-02-23T17:36:35.511Z,54.95
2018-02-23T17:39:17.905Z,54.86
2018-02-23T17:41:19.314Z,55.14
2018-02-23T17:43:20.717Z,55.14
2018-02-23T17:45:23.572Z,55.24
2018-02-23T17:47:25.958Z,55.62
2018-02-23T17:49:27.346Z,56.46
2018-02-23T17:51:28.867Z,56.46
2018-02-23T17:53:30.412Z,55.62
2018-02-23T17:55:31.996Z,55.62
2018-02-23T17:58:15.767Z,56.56
2018-02-23T18:00:17.874Z,56.66
2018-02-23T18:02:19.842Z,56.46
2018-02-23T18:04:21.888Z,56.46
2018-02-23T18:06:23.294Z,56.56
2018-02-23T18:08:25.293Z,56.75
2018-02-23T18:10:26.984Z,57.13
2018-02-23T18:12:28.595Z,56.75
2018-02-23T18:14:30.534Z,57.23
2018-02-23T18:16:32.250Z,57.79
2018-02-23T18:18:34.222Z,57.32
2018-02-23T18:20:36.816Z,57.13
2018-02-23T18:22:39.766Z,58.17
2018-02-23T18:24:42.209Z,58.26
2018-02-23T18:26:45.264Z,57.79
2018-02-23T18:28:48.864Z,57.70
2018-02-23T18:30:50.601Z,57.48
2018-02-23T18:32:53.140Z,57.57
2018-02-23T18:34:55.201Z,57.57
2018-02-23T18:36:57.366Z,57.48
2018-02-23T18:38:59.091Z,57.95
2018-02-23T18:41:01.269Z,58.52
2018-02-23T18:43:02.873Z,58.81
2018-02-23T18:45:05.204Z,58.33
2018-02-23T18:47:07.426Z,58.62
2018-02-23T18:49:10.196Z,58.33
2018-02-23T18:51:14.743Z,58.33
2018-02-23T18:53:18.364Z,58.52
2018-02-23T18:55:20.701Z,58.43
2018-02-23T18:57:23.405Z,58.24
2018-02-23T18:59:25.432Z,58.52
2018-02-23T19:01:27.865Z,58.81
2018-02-23T19:03:30.272Z,59.00
2018-02-23T19:05:32.468Z,59.47
2018-02-23T22:20:26.741Z,54.77
2018-02-23T22:22:28.135Z,54.30
2018-02-23T22:25:10.766Z,55.06
2018-02-23T22:27:13.139Z,54.49
2018-02-23T22:30:00.671Z,54.49
2018-02-23T22:32:57.300Z,54.21
2018-02-23T22:35:43.177Z,54.02
2018-02-23T22:38:27.792Z,54.58
2018-02-23T22:41:13.654Z,53.92
2018-02-23T22:44:00.678Z,54.02
2018-02-23T22:46:46.150Z,54.21
2018-02-23T22:49:36.656Z,54.68
2018-02-23T22:52:25.257Z,54.74
2018-02-23T22:55:15.200Z,54.84
2018-02-23T22:58:00.398Z,55.06
2018-02-23T23:00:46.364Z,54.21
2018-02-23T23:03:31.047Z,54.21
2018-02-23T23:06:15.211Z,54.39
2018-02-23T23:09:00.086Z,53.55
2018-02-23T23:11:43.390Z,54.21
2018-02-23T23:14:29.531Z,53.74
2018-02-23T23:17:15.282Z,53.36
2018-02-23T23:20:02.301Z,53.61
2018-02-23T23:22:46.455Z,53.55
2018-02-23T23:25:32.375Z,53.64
2018-02-23T23:28:21.327Z,53.36
2018-02-23T23:31:10.225Z,53.55
2018-02-23T23:34:02.816Z,53.33
2018-02-23T23:36:47.267Z,54.18
2018-02-23T23:39:31.192Z,54.55
2018-02-23T23:42:17.844Z,54.65
2018-02-23T23:45:03.157Z,54.08
2018-02-23T23:47:48.678Z,55.03
2018-02-23T23:50:33.861Z,55.03
2018-02-23T23:53:23.698Z,55.12
2018-02-23T23:56:07.891Z,53.99
2018-02-23T23:58:54.321Z,53.89
